Huvudsida
METAR-TAF:

METAR-TAF

Flygplatser :

Ancona, Italien

latitud: 43-37N, longitud: 013-22E, höjd: 12 m

Aktuellt väderrapport

Denna rapport gjordes för 1 timme och 4 minuter sedan, klockan 19:50 UTC
Vind 3 kt från syd/sydväst
Temperatur 7°C
Fuktighet 100%
Tryck 1020 hPa
Sikt: 4000 m
Få moln på en höjd av 1000 ft
Brutna moln på en höjd av 6000 ft
fuktdis

METAR: LIPY 261950Z 21003KT 4000 BR FEW010 BKN060 07/07 Q1020

Tid: 21:54 (20:54 UTC)

Väderprognos

Denna rapport gjordes för 3 timmar och 54 minuter sedan, klockan 17:00 UTC
Prognos gäller från 26 kl. 18 UTC till 27 kl. 18 UTC
Vind 5 kt varierande vindriktning
Sikt: 2000 m
Brutna moln på en höjd av 1000 ft
fuktdis
Blir
från 26 kl. 20 UTC till 26 kl. 23 UTC
Sikt: 0400 m
Brutna moln på en höjd av 300 ft
dimma
Blir
från 27 kl. 07 UTC till 27 kl. 09 UTC
Sikt: 3000 m
Spridda moln på en höjd av 1400 ft
fuktdis

TAF: LIPY 261700Z 2618/2718 VRB05KT 2000 BR BKN010 BECMG 2620/2623 0400 FG BKN003 BECMG 2707/2709 3000 BR SCT014

Aktuella väderrapporter och prognoser från 4000 flygplatser (METAR- och TAF-rapporter).

De tillgängliga stationerna syns som gula och röda prickar på kartan.

För musen över prickarna för att se namnen på stationerna.

Klicka sedan för att få väderrapporter och prognoser.

För att ändra kartan: Klicka på de gröna knapparna med ett svart kors på för att zooma in; den gröna knappen med ett streck på för att zooma ut; eller på de gröna pilarna för angränsande kartor.


METAR-TAF: